createdAt,value
2019-03-08T00:00:25.602Z,8.42
2019-03-08T00:01:25.657Z,8.61
2019-03-08T00:02:25.709Z,8.60
2019-03-08T00:03:25.762Z,8.68
2019-03-08T00:04:25.816Z,8.83
2019-03-08T00:05:25.870Z,8.83
2019-03-08T00:06:25.925Z,9.03
2019-03-08T00:07:25.977Z,9.04
2019-03-08T00:08:26.030Z,9.08
2019-03-08T00:09:26.083Z,9.38
2019-03-08T00:10:26.137Z,9.44
2019-03-08T00:11:26.191Z,9.50
2019-03-08T00:12:26.244Z,9.50
2019-03-08T00:13:26.298Z,9.48
2019-03-08T00:14:26.353Z,9.49
2019-03-08T00:15:26.404Z,9.49
2019-03-08T00:16:26.461Z,9.52
2019-03-08T00:17:26.514Z,9.50
2019-03-08T00:18:26.566Z,9.59
2019-03-08T00:19:26.621Z,9.52
2019-03-08T00:20:26.700Z,9.37
2019-03-08T00:21:26.728Z,9.48
2019-03-08T00:22:26.784Z,9.52
2019-03-08T00:23:26.835Z,9.37
2019-03-08T00:24:26.889Z,9.40
2019-03-08T00:25:26.946Z,9.40
2019-03-08T00:26:26.997Z,9.34
2019-03-08T00:27:27.055Z,9.30
2019-03-08T00:28:27.736Z,9.23
2019-03-08T00:29:27.157Z,9.26
2019-03-08T00:30:27.786Z,9.27
2019-03-08T00:31:27.266Z,9.24
2019-03-08T00:32:27.318Z,9.27
2019-03-08T00:33:27.375Z,9.24
2019-03-08T00:34:27.427Z,9.26
2019-03-08T00:35:27.479Z,9.44
2019-03-08T00:36:27.534Z,9.45
2019-03-08T00:37:27.587Z,9.37
2019-03-08T00:38:27.643Z,9.42
2019-03-08T00:39:27.695Z,9.27
2019-03-08T00:40:27.749Z,9.38
2019-03-08T00:41:27.804Z,9.38
2019-03-08T00:42:27.859Z,9.40
2019-03-08T00:43:27.911Z,9.35
2019-03-08T00:44:27.964Z,9.26
2019-03-08T00:45:28.019Z,9.27
2019-03-08T00:46:28.075Z,9.34
2019-03-08T00:47:28.126Z,9.30
2019-03-08T00:48:28.180Z,9.27
2019-03-08T00:49:28.233Z,9.32
2019-03-08T00:50:28.289Z,9.34
2019-03-08T00:51:28.340Z,9.32
2019-03-08T00:52:28.396Z,9.38
2019-03-08T00:53:28.449Z,9.38
2019-03-08T00:54:28.508Z,9.35
2019-03-08T00:55:28.556Z,9.44
2019-03-08T00:56:28.626Z,9.38
2019-03-08T00:57:28.667Z,9.37
2019-03-08T00:58:28.719Z,9.37
2019-03-08T00:59:28.773Z,9.45
2019-03-08T01:00:28.826Z,9.48
2019-03-08T01:01:28.880Z,9.49
2019-03-08T01:02:28.935Z,9.45
2019-03-08T01:03:28.989Z,9.58
2019-03-08T01:04:29.041Z,9.67
2019-03-08T01:05:30.252Z,9.60
2019-03-08T01:06:29.150Z,9.55
2019-03-08T01:07:29.205Z,9.52
2019-03-08T01:08:29.256Z,9.53
2019-03-08T01:09:29.312Z,9.63
2019-03-08T01:10:29.365Z,9.59
2019-03-08T01:11:29.419Z,9.60
2019-03-08T01:12:29.473Z,9.63
2019-03-08T01:13:29.530Z,9.50
2019-03-08T01:14:29.580Z,9.50
2019-03-08T01:15:29.635Z,9.45
2019-03-08T01:16:29.693Z,9.50
2019-03-08T01:17:29.743Z,9.53
2019-03-08T01:18:29.797Z,9.49
2019-03-08T01:19:29.850Z,9.50
2019-03-08T01:20:29.904Z,9.56
2019-03-08T01:21:29.958Z,9.52
2019-03-08T01:22:30.012Z,9.55
2019-03-08T01:23:30.071Z,9.49
2019-03-08T01:24:30.121Z,9.49
2019-03-08T01:25:30.174Z,9.52
2019-03-08T01:26:30.229Z,9.53
2019-03-08T01:27:30.281Z,9.53
2019-03-08T01:28:30.337Z,9.53
2019-03-08T01:29:30.390Z,9.52
2019-03-08T01:30:30.445Z,9.53
2019-03-08T01:31:30.500Z,9.49
2019-03-08T01:32:30.552Z,9.49
2019-03-08T01:33:30.606Z,9.56
2019-03-08T01:34:30.661Z,9.53
2019-03-08T01:35:30.715Z,9.49
2019-03-08T01:36:30.768Z,9.40
2019-03-08T01:37:30.822Z,9.32
2019-03-08T01:38:30.876Z,9.37
2019-03-08T01:39:30.929Z,9.35
2019-03-08T01:40:30.985Z,9.42
2019-03-08T01:41:31.037Z,9.31
2019-03-08T01:42:31.093Z,9.30
2019-03-08T01:43:31.152Z,9.35
2019-03-08T01:44:31.201Z,9.45
2019-03-08T01:45:31.253Z,9.37
2019-03-08T01:46:31.307Z,9.32
2019-03-08T01:47:31.361Z,9.30
2019-03-08T01:48:31.415Z,9.30
2019-03-08T01:49:31.469Z,9.40
2019-03-08T01:50:31.523Z,9.34
2019-03-08T01:51:31.576Z,9.30
2019-03-08T01:52:31.650Z,9.26
2019-03-08T01:53:31.683Z,9.31
2019-03-08T01:54:31.738Z,9.26
2019-03-08T01:55:31.792Z,9.24
2019-03-08T01:56:31.845Z,9.38
2019-03-08T01:57:31.900Z,9.27
2019-03-08T01:58:31.954Z,9.32
2019-03-08T01:59:32.006Z,9.40
2019-03-08T02:00:32.061Z,9.37
2019-03-08T02:01:32.115Z,9.32
2019-03-08T02:02:32.169Z,9.30
2019-03-08T02:03:32.221Z,9.40
2019-03-08T02:04:32.275Z,9.37
2019-03-08T02:05:32.329Z,9.40
2019-03-08T02:06:32.385Z,9.35
2019-03-08T02:07:33.270Z,9.38
2019-03-08T02:08:32.490Z,9.34
2019-03-08T02:09:32.545Z,9.34
2019-03-08T02:10:32.599Z,9.35
2019-03-08T02:11:32.653Z,9.41
2019-03-08T02:12:32.707Z,9.41
2019-03-08T02:13:32.760Z,9.32
2019-03-08T02:14:32.814Z,9.35
2019-03-08T02:15:32.867Z,9.27
2019-03-08T02:16:32.921Z,9.35
2019-03-08T02:17:32.974Z,9.32
2019-03-08T02:18:33.030Z,9.31
2019-03-08T02:19:33.081Z,9.20
2019-03-08T02:20:33.137Z,9.24
2019-03-08T02:21:33.190Z,9.31
2019-03-08T02:22:33.243Z,9.30
2019-03-08T02:23:33.296Z,9.26
2019-03-08T02:24:33.350Z,9.15
2019-03-08T02:25:33.405Z,9.16
2019-03-08T02:26:33.460Z,9.15
2019-03-08T02:27:33.513Z,9.16
2019-03-08T02:28:33.566Z,9.13
2019-03-08T02:29:33.619Z,9.08
2019-03-08T02:30:33.675Z,9.15
2019-03-08T02:31:33.728Z,9.17
2019-03-08T02:32:33.780Z,9.03
2019-03-08T02:33:33.834Z,9.03
2019-03-08T02:34:33.889Z,9.16
2019-03-08T02:35:33.945Z,9.08
2019-03-08T02:36:33.999Z,9.08
2019-03-08T02:37:34.049Z,9.12
2019-03-08T02:38:34.104Z,9.03
2019-03-08T02:39:34.155Z,9.03
2019-03-08T02:40:34.211Z,9.06
2019-03-08T02:41:34.263Z,9.01
2019-03-08T02:42:34.318Z,9.03
2019-03-08T02:43:34.371Z,9.06
2019-03-08T02:44:34.426Z,8.98
2019-03-08T02:45:34.479Z,9.06
2019-03-08T02:46:34.532Z,9.01
2019-03-08T02:47:34.585Z,8.98
2019-03-08T02:48:34.640Z,8.96
2019-03-08T02:49:34.694Z,8.98
2019-03-08T02:50:34.746Z,8.96
2019-03-08T02:51:34.799Z,8.98
2019-03-08T02:52:34.854Z,8.93
2019-03-08T02:53:34.908Z,9.04
2019-03-08T02:54:34.963Z,9.04
2019-03-08T02:55:35.017Z,9.10
2019-03-08T02:56:35.068Z,9.03
2019-03-08T02:57:35.123Z,9.01
2019-03-08T02:58:35.178Z,9.06
2019-03-08T02:59:35.231Z,9.03
2019-03-08T03:00:35.282Z,9.12
2019-03-08T03:01:35.337Z,9.17
2019-03-08T03:02:35.391Z,9.17
2019-03-08T03:03:35.443Z,9.13
2019-03-08T03:04:35.496Z,9.22
2019-03-08T03:05:35.550Z,9.19
2019-03-08T03:06:35.607Z,9.23
2019-03-08T03:07:35.658Z,9.24
2019-03-08T03:08:35.712Z,9.23
2019-03-08T03:09:35.766Z,9.26
2019-03-08T03:10:35.825Z,9.24
2019-03-08T03:11:35.884Z,9.26
2019-03-08T03:12:35.925Z,9.27
2019-03-08T03:13:35.981Z,9.27
2019-03-08T03:14:36.033Z,9.20
2019-03-08T03:15:36.087Z,9.26
2019-03-08T03:16:36.141Z,9.26
2019-03-08T03:17:36.195Z,9.30
2019-03-08T03:18:36.249Z,9.20
2019-03-08T03:19:36.301Z,9.20
2019-03-08T03:20:36.358Z,9.23
2019-03-08T03:21:36.411Z,9.27
2019-03-08T03:22:36.464Z,9.26
2019-03-08T03:23:36.517Z,9.26
2019-03-08T03:24:36.571Z,9.17
2019-03-08T03:25:36.624Z,9.22
2019-03-08T03:26:36.679Z,9.26
2019-03-08T03:27:36.733Z,9.31
2019-03-08T03:28:36.784Z,9.26
2019-03-08T03:29:36.840Z,9.30
2019-03-08T03:30:36.895Z,9.27
2019-03-08T03:31:36.948Z,9.24
2019-03-08T03:32:37.001Z,9.23
2019-03-08T03:33:37.054Z,9.26
2019-03-08T03:34:37.108Z,9.24
2019-03-08T03:35:37.161Z,9.27
2019-03-08T03:36:37.214Z,9.24
2019-03-08T03:37:37.286Z,9.26
2019-03-08T03:38:37.324Z,9.17
2019-03-08T03:39:37.376Z,9.31
2019-03-08T03:40:37.431Z,9.27
2019-03-08T03:41:37.484Z,9.24
2019-03-08T03:42:37.537Z,9.30
2019-03-08T03:43:37.590Z,9.26
2019-03-08T03:44:37.646Z,9.24
2019-03-08T03:45:37.700Z,9.19
2019-03-08T03:46:37.755Z,9.24
2019-03-08T03:47:37.806Z,9.23
2019-03-08T03:48:37.860Z,9.17
2019-03-08T03:49:37.918Z,9.20
2019-03-08T03:50:37.970Z,9.19
2019-03-08T03:51:38.022Z,9.15
2019-03-08T03:52:38.074Z,9.15
2019-03-08T03:53:38.131Z,9.20
2019-03-08T03:54:38.184Z,9.22
2019-03-08T03:55:38.237Z,9.27
2019-03-08T03:56:38.290Z,9.30
2019-03-08T03:57:38.343Z,9.30
2019-03-08T03:58:38.401Z,9.24
2019-03-08T03:59:38.451Z,9.24
2019-03-08T04:00:38.505Z,9.30
2019-03-08T04:01:38.559Z,9.22
2019-03-08T04:02:38.614Z,9.24
2019-03-08T04:03:38.666Z,9.20
2019-03-08T04:04:38.721Z,9.19
2019-03-08T04:05:38.775Z,9.15
2019-03-08T04:06:38.829Z,9.12
2019-03-08T04:07:38.881Z,9.04
2019-03-08T04:08:38.935Z,9.04
2019-03-08T04:09:38.991Z,9.03
2019-03-08T04:10:39.044Z,9.04
2019-03-08T04:11:39.098Z,9.10
2019-03-08T04:12:39.151Z,9.08
2019-03-08T04:13:39.205Z,9.04
2019-03-08T04:14:39.261Z,9.08
2019-03-08T04:15:39.310Z,9.06
2019-03-08T04:16:39.365Z,9.15
2019-03-08T04:17:39.419Z,9.16
2019-03-08T04:18:39.472Z,9.06
2019-03-08T04:19:39.526Z,9.00
2019-03-08T04:20:39.583Z,9.08
2019-03-08T04:21:39.635Z,8.94
2019-03-08T04:22:39.688Z,8.96
2019-03-08T04:23:39.739Z,8.94
2019-03-08T04:24:39.796Z,8.97
2019-03-08T04:25:39.850Z,8.89
2019-03-08T04:26:39.906Z,8.85
2019-03-08T04:27:41.728Z,8.85
2019-03-08T04:28:40.010Z,8.76
2019-03-08T04:29:40.063Z,8.75
2019-03-08T04:30:40.117Z,8.76
2019-03-08T04:31:40.174Z,8.85
2019-03-08T04:32:40.225Z,8.89
2019-03-08T04:33:40.279Z,8.76
2019-03-08T04:34:40.335Z,8.78
2019-03-08T04:35:40.385Z,8.71
2019-03-08T04:36:40.438Z,8.73
2019-03-08T04:37:40.491Z,8.71
2019-03-08T04:38:40.547Z,8.76
2019-03-08T04:39:40.599Z,8.75
2019-03-08T04:40:40.653Z,8.82
2019-03-08T04:41:40.707Z,8.80
2019-03-08T04:42:40.760Z,8.76
2019-03-08T04:43:40.813Z,8.91
2019-03-08T04:44:40.867Z,8.94
2019-03-08T04:45:40.921Z,8.93
2019-03-08T04:46:40.974Z,8.91
2019-03-08T04:47:41.027Z,8.97
2019-03-08T04:48:41.399Z,8.96
2019-03-08T04:49:41.135Z,8.96
2019-03-08T04:50:41.188Z,8.91
2019-03-08T04:51:41.242Z,8.97
2019-03-08T04:52:41.299Z,9.01
2019-03-08T04:53:41.350Z,9.06
2019-03-08T04:54:41.403Z,8.97
2019-03-08T04:55:41.455Z,9.03
2019-03-08T04:56:41.509Z,8.98
2019-03-08T04:57:41.562Z,8.98
2019-03-08T04:58:41.616Z,8.94
2019-03-08T04:59:41.670Z,8.96
2019-03-08T05:00:41.725Z,8.94
2019-03-08T05:01:41.778Z,9.04
2019-03-08T05:02:41.832Z,8.94
2019-03-08T05:03:41.884Z,8.93
2019-03-08T05:04:41.939Z,8.94
2019-03-08T05:05:41.991Z,8.93
2019-03-08T05:06:42.045Z,8.88
2019-03-08T05:07:42.097Z,8.94
2019-03-08T05:08:42.152Z,8.91
2019-03-08T05:09:42.208Z,8.97
2019-03-08T05:10:42.260Z,8.91
2019-03-08T05:11:42.311Z,8.85
2019-03-08T05:12:42.365Z,8.89
2019-03-08T05:13:42.420Z,8.89
2019-03-08T05:14:42.474Z,8.86
2019-03-08T05:15:42.525Z,8.91
2019-03-08T05:16:42.579Z,8.93
2019-03-08T05:17:43.090Z,8.88
2019-03-08T05:18:42.796Z,8.76
2019-03-08T05:19:42.739Z,8.79
2019-03-08T05:20:42.794Z,8.70
2019-03-08T05:21:42.849Z,8.78
2019-03-08T05:22:42.902Z,8.70
2019-03-08T05:23:42.954Z,8.68
2019-03-08T05:24:43.009Z,8.73
2019-03-08T05:25:43.063Z,8.70
2019-03-08T05:26:43.114Z,8.70
2019-03-08T05:27:43.170Z,8.64
2019-03-08T05:28:43.747Z,8.60
2019-03-08T05:29:43.334Z,8.58
2019-03-08T05:30:43.338Z,8.64
2019-03-08T05:31:43.381Z,8.61
2019-03-08T05:32:43.435Z,8.67
2019-03-08T05:33:43.531Z,8.63
2019-03-08T05:34:43.542Z,8.57
2019-03-08T05:35:43.598Z,8.58
2019-03-08T05:36:43.648Z,8.64
2019-03-08T05:37:43.702Z,8.60
2019-03-08T05:38:43.755Z,8.65
2019-03-08T05:39:43.808Z,8.58
2019-03-08T05:40:43.861Z,8.60
2019-03-08T05:41:43.915Z,8.68
2019-03-08T05:42:43.970Z,8.63
2019-03-08T05:43:44.025Z,8.67
2019-03-08T05:44:44.074Z,8.67
2019-03-08T05:45:44.130Z,8.67
2019-03-08T05:46:44.182Z,8.67
2019-03-08T05:47:44.241Z,8.65
2019-03-08T05:48:44.287Z,8.73
2019-03-08T05:49:44.343Z,8.64
2019-03-08T05:50:44.397Z,8.71
2019-03-08T05:51:44.448Z,8.71
2019-03-08T05:52:45.144Z,8.70
2019-03-08T05:53:44.557Z,8.70
2019-03-08T05:54:44.609Z,8.70
2019-03-08T05:55:44.663Z,8.76
2019-03-08T05:56:44.716Z,8.79
2019-03-08T05:57:44.769Z,8.78
2019-03-08T05:58:44.822Z,8.75
2019-03-08T05:59:45.530Z,8.75
2019-03-08T06:00:44.929Z,8.71
2019-03-08T06:01:44.982Z,8.78
2019-03-08T06:02:45.631Z,8.86
2019-03-08T06:03:45.120Z,8.71
2019-03-08T06:04:45.141Z,8.76
2019-03-08T06:05:45.196Z,8.82
2019-03-08T06:06:45.294Z,8.88
2019-03-08T06:07:45.306Z,8.76
2019-03-08T06:08:45.371Z,8.83
2019-03-08T06:09:45.410Z,8.85
2019-03-08T06:10:45.470Z,8.89
2019-03-08T06:11:45.515Z,8.88
2019-03-08T06:12:45.570Z,8.83
2019-03-08T06:13:45.625Z,8.82
2019-03-08T06:14:45.676Z,8.91
2019-03-08T06:15:45.731Z,8.91
2019-03-08T06:16:45.784Z,8.89
2019-03-08T06:17:45.838Z,8.96
2019-03-08T06:18:45.890Z,8.86
2019-03-08T06:19:45.944Z,8.94
2019-03-08T06:20:45.997Z,8.89
2019-03-08T06:21:46.056Z,8.94
2019-03-08T06:22:46.106Z,8.89
2019-03-08T06:23:46.166Z,8.86
2019-03-08T06:24:46.552Z,8.83
2019-03-08T06:25:46.265Z,8.86
2019-03-08T06:26:46.319Z,8.85
2019-03-08T06:27:46.376Z,8.75
2019-03-08T06:28:46.427Z,8.71
2019-03-08T06:29:46.479Z,8.76
2019-03-08T06:30:46.534Z,8.73
2019-03-08T06:31:46.587Z,8.75
2019-03-08T06:32:46.641Z,8.71
2019-03-08T06:33:46.694Z,8.71
2019-03-08T06:34:46.748Z,8.79
2019-03-08T06:35:46.800Z,8.67
2019-03-08T06:36:47.058Z,8.68
2019-03-08T06:37:46.912Z,8.70
2019-03-08T06:38:46.962Z,8.70
2019-03-08T06:39:47.015Z,8.75
2019-03-08T06:40:47.069Z,8.76
2019-03-08T06:41:47.122Z,8.80
2019-03-08T06:42:47.175Z,8.75
2019-03-08T06:43:47.228Z,8.76
2019-03-08T06:44:47.282Z,8.79
2019-03-08T06:45:47.336Z,8.75
2019-03-08T06:46:47.391Z,8.78
2019-03-08T06:47:47.443Z,8.83
2019-03-08T06:48:47.496Z,8.78
2019-03-08T06:49:47.550Z,8.79
2019-03-08T06:50:47.606Z,8.76
2019-03-08T06:51:47.658Z,8.71
2019-03-08T06:52:47.711Z,8.75
2019-03-08T06:53:47.766Z,8.70
2019-03-08T06:54:47.820Z,8.78
2019-03-08T06:55:47.872Z,8.73
2019-03-08T06:56:47.927Z,8.70
2019-03-08T06:57:47.978Z,8.75
2019-03-08T06:58:48.033Z,8.75
2019-03-08T06:59:48.086Z,8.71
2019-03-08T07:00:48.141Z,8.76
2019-03-08T07:01:48.195Z,8.73
2019-03-08T07:02:48.247Z,8.65
2019-03-08T07:03:48.301Z,8.73
2019-03-08T07:04:48.354Z,8.68
2019-03-08T07:05:48.408Z,8.68
2019-03-08T07:06:48.462Z,8.67
2019-03-08T07:07:48.515Z,8.65
2019-03-08T07:08:48.568Z,8.58
2019-03-08T07:09:48.623Z,8.70
2019-03-08T07:10:49.030Z,8.60
2019-03-08T07:11:48.736Z,8.68
2019-03-08T07:12:48.785Z,8.68
2019-03-08T07:13:48.837Z,8.60
2019-03-08T07:14:48.893Z,8.60
2019-03-08T07:15:48.981Z,8.67
2019-03-08T07:16:49.031Z,8.67
2019-03-08T07:17:49.054Z,8.67
2019-03-08T07:18:49.106Z,8.63
2019-03-08T07:19:49.158Z,8.68
2019-03-08T07:20:49.212Z,8.73
2019-03-08T07:21:49.267Z,8.70
2019-03-08T07:22:49.320Z,8.73
2019-03-08T07:23:49.372Z,8.70
2019-03-08T07:24:49.429Z,8.70
2019-03-08T07:25:52.619Z,8.70
2019-03-08T07:26:49.535Z,8.71
2019-03-08T07:27:49.587Z,8.71
2019-03-08T07:28:49.640Z,8.70
2019-03-08T07:29:49.697Z,8.73
2019-03-08T07:30:57.646Z,8.67
2019-03-08T07:31:49.802Z,8.76
2019-03-08T07:32:49.856Z,8.71
2019-03-08T07:33:53.145Z,8.80
2019-03-08T07:34:49.963Z,8.71
2019-03-08T07:35:50.021Z,8.78
2019-03-08T07:36:50.070Z,8.75
2019-03-08T07:37:50.125Z,8.75
2019-03-08T07:38:50.184Z,8.73
2019-03-08T07:39:50.230Z,8.78
2019-03-08T07:40:50.285Z,8.73
2019-03-08T07:41:50.338Z,8.71
2019-03-08T07:42:50.393Z,8.79
2019-03-08T07:43:50.932Z,8.73
2019-03-08T07:44:50.500Z,8.73
2019-03-08T07:45:50.554Z,8.73
2019-03-08T07:46:50.607Z,8.70
2019-03-08T07:47:50.661Z,8.73
2019-03-08T07:48:50.715Z,8.73
2019-03-08T07:49:50.767Z,8.63
2019-03-08T07:50:50.822Z,8.68
2019-03-08T07:51:50.875Z,8.67
2019-03-08T07:52:50.931Z,8.58
2019-03-08T07:53:50.983Z,8.58
2019-03-08T07:54:53.131Z,8.63
2019-03-08T07:55:51.093Z,8.57
2019-03-08T07:56:51.142Z,8.54
2019-03-08T07:57:51.196Z,8.47
2019-03-08T07:58:51.252Z,8.39
2019-03-08T07:59:53.950Z,8.40
2019-03-08T08:00:51.359Z,8.43
2019-03-08T08:01:51.411Z,8.39
2019-03-08T08:02:51.465Z,8.31
2019-03-08T08:03:51.521Z,8.31
2019-03-08T08:04:51.574Z,8.28
2019-03-08T08:05:58.076Z,8.32
2019-03-08T08:06:51.683Z,8.32
2019-03-08T08:07:51.734Z,8.29
2019-03-08T08:08:52.095Z,8.28
2019-03-08T08:09:51.840Z,8.28
2019-03-08T08:10:51.898Z,8.28
2019-03-08T08:11:51.947Z,8.25
2019-03-08T08:12:52.020Z,8.27
2019-03-08T08:13:52.054Z,8.22
2019-03-08T08:14:52.111Z,8.29
2019-03-08T08:15:52.162Z,8.21
2019-03-08T08:16:52.215Z,8.24
2019-03-08T08:17:52.271Z,8.22
2019-03-08T08:18:52.322Z,8.17
2019-03-08T08:19:52.374Z,8.20
2019-03-08T08:20:52.432Z,8.29
2019-03-08T08:21:52.481Z,8.28
2019-03-08T08:22:52.537Z,8.22
2019-03-08T08:23:52.589Z,8.21
2019-03-08T08:24:52.645Z,8.12
2019-03-08T08:25:52.697Z,8.13
2019-03-08T08:26:52.749Z,8.21
2019-03-08T08:27:52.802Z,8.24
2019-03-08T08:28:52.856Z,8.09
2019-03-08T08:29:52.911Z,8.07
2019-03-08T08:30:52.963Z,7.96
2019-03-08T08:31:53.015Z,7.96
2019-03-08T08:32:53.068Z,7.84
2019-03-08T08:33:53.123Z,7.42
2019-03-08T08:34:53.177Z,7.11
2019-03-08T08:35:53.230Z,7.05
2019-03-08T08:36:53.283Z,7.07
2019-03-08T08:37:53.335Z,7.07
2019-03-08T08:38:53.389Z,7.11
2019-03-08T08:39:53.444Z,7.05
2019-03-08T08:40:53.496Z,7.11
2019-03-08T08:41:53.549Z,7.12
2019-03-08T08:42:53.602Z,7.07
2019-03-08T08:43:53.656Z,7.12
2019-03-08T08:44:53.707Z,7.21
2019-03-08T08:45:53.769Z,7.12
2019-03-08T08:46:53.815Z,7.33
2019-03-08T08:47:53.868Z,7.36
2019-03-08T08:48:53.922Z,7.32
2019-03-08T08:49:54.975Z,7.32
2019-03-08T08:50:54.025Z,7.37
2019-03-08T08:51:54.078Z,7.44
2019-03-08T08:52:54.133Z,7.51
2019-03-08T08:53:54.188Z,7.52
2019-03-08T08:54:54.943Z,7.58
2019-03-08T08:55:54.908Z,7.71
2019-03-08T08:56:54.343Z,7.76
2019-03-08T08:57:54.397Z,7.69
2019-03-08T08:58:54.771Z,7.70
2019-03-08T08:59:54.503Z,7.82
2019-03-08T09:00:54.564Z,7.77
2019-03-08T09:01:54.610Z,7.82
2019-03-08T09:02:54.665Z,7.71
2019-03-08T09:03:54.717Z,7.69
2019-03-08T09:04:54.776Z,7.85
2019-03-08T09:05:56.428Z,7.84
2019-03-08T09:06:54.880Z,7.85
2019-03-08T09:07:54.931Z,7.89
2019-03-08T09:08:54.987Z,7.94
2019-03-08T09:09:55.039Z,8.02
2019-03-08T09:10:55.093Z,8.09
2019-03-08T09:11:55.148Z,8.13
2019-03-08T09:12:55.200Z,8.20
2019-03-08T09:13:55.256Z,8.18
2019-03-08T09:14:55.309Z,8.21
2019-03-08T09:15:55.362Z,8.21
2019-03-08T09:16:55.418Z,8.32
2019-03-08T09:17:55.479Z,8.37
2019-03-08T09:18:55.529Z,8.40
2019-03-08T09:19:55.581Z,8.55
2019-03-08T09:20:55.635Z,8.60
2019-03-08T09:21:55.688Z,8.64
2019-03-08T09:22:55.743Z,8.91
2019-03-08T09:23:55.798Z,8.94
2019-03-08T09:24:55.852Z,9.00
2019-03-08T09:25:55.908Z,9.03
2019-03-08T09:26:55.962Z,9.30
2019-03-08T09:27:56.017Z,9.27
2019-03-08T09:28:56.072Z,9.23
2019-03-08T09:29:56.136Z,9.31
2019-03-08T09:30:56.183Z,9.35
2019-03-08T09:31:56.237Z,9.35
2019-03-08T09:32:59.445Z,9.34
2019-03-08T09:33:56.348Z,9.50
2019-03-08T09:34:56.405Z,9.60
2019-03-08T09:35:56.460Z,9.60
2019-03-08T09:36:56.515Z,9.58
2019-03-08T09:37:56.590Z,9.40
2019-03-08T09:38:56.636Z,9.50
2019-03-08T09:39:56.686Z,9.65
2019-03-08T09:40:56.955Z,9.60
2019-03-08T09:41:56.817Z,9.60
2019-03-08T09:42:56.850Z,9.60
2019-03-08T09:43:56.907Z,9.62
2019-03-08T09:44:56.962Z,9.65
2019-03-08T09:45:57.019Z,9.73
2019-03-08T09:46:57.074Z,9.92
2019-03-08T09:47:57.128Z,9.96
2019-03-08T09:48:58.831Z,9.83
2019-03-08T09:49:57.242Z,9.74
2019-03-08T09:50:57.297Z,9.67
2019-03-08T09:51:57.352Z,9.73
2019-03-08T09:52:57.412Z,9.80
2019-03-08T09:53:57.470Z,9.85
2019-03-08T09:54:57.522Z,9.86
2019-03-08T09:55:57.579Z,9.98
2019-03-08T09:56:57.635Z,9.81
2019-03-08T09:57:57.690Z,9.92
2019-03-08T09:58:57.747Z,9.91
2019-03-08T09:59:57.802Z,9.71
2019-03-08T10:00:57.859Z,9.78
2019-03-08T10:01:57.914Z,9.98
2019-03-08T10:02:57.972Z,9.91
2019-03-08T10:03:58.027Z,9.91
2019-03-08T10:04:58.082Z,10.09
2019-03-08T10:05:58.138Z,10.13
2019-03-08T10:06:58.197Z,10.14
2019-03-08T10:07:58.254Z,10.22
2019-03-08T10:08:58.309Z,10.35
2019-03-08T10:09:58.363Z,10.26
2019-03-08T10:10:58.429Z,10.09
2019-03-08T10:11:58.475Z,10.20
2019-03-08T10:12:58.532Z,10.06
2019-03-08T10:13:58.589Z,9.92
2019-03-08T10:14:58.646Z,9.96
2019-03-08T10:15:58.704Z,9.92
2019-03-08T10:16:58.763Z,9.71
2019-03-08T10:17:58.812Z,9.89
2019-03-08T10:18:58.876Z,9.96
2019-03-08T10:19:58.926Z,9.95
2019-03-08T10:20:58.981Z,9.65
2019-03-08T10:21:59.039Z,9.73
2019-03-08T10:22:59.095Z,9.81
2019-03-08T10:23:59.151Z,9.80
2019-03-08T10:24:59.207Z,9.96
2019-03-08T10:25:59.267Z,10.09
2019-03-08T10:26:59.319Z,10.28
2019-03-08T10:27:59.383Z,10.47
2019-03-08T10:28:59.431Z,10.43
2019-03-08T10:29:59.491Z,10.32
2019-03-08T10:30:59.545Z,10.26
2019-03-08T10:31:59.600Z,10.42
2019-03-08T10:32:59.659Z,10.43
2019-03-08T10:33:59.720Z,10.28
2019-03-08T10:34:59.773Z,10.17
2019-03-08T10:35:59.825Z,10.14
2019-03-08T10:36:59.885Z,9.83
2019-03-08T10:37:59.938Z,9.85
2019-03-08T10:38:59.995Z,9.98
2019-03-08T10:40:00.050Z,10.14
2019-03-08T10:41:00.110Z,10.36
2019-03-08T10:42:00.189Z,10.62
2019-03-08T10:43:00.220Z,10.57
2019-03-08T10:44:08.663Z,10.57
2019-03-08T10:45:00.465Z,10.38
2019-03-08T10:46:00.388Z,10.44
2019-03-08T10:47:00.446Z,10.32
2019-03-08T10:48:00.501Z,10.20
2019-03-08T10:49:00.556Z,10.31
2019-03-08T10:50:00.613Z,10.49
2019-03-08T10:51:00.669Z,10.32
2019-03-08T10:52:00.725Z,10.35
2019-03-08T10:53:00.781Z,10.31
2019-03-08T10:54:01.081Z,10.63
2019-03-08T10:55:00.894Z,10.70
2019-03-08T10:56:00.950Z,10.73
2019-03-08T10:57:01.006Z,10.42
2019-03-08T10:58:01.062Z,10.14
2019-03-08T10:59:01.165Z,10.35
2019-03-08T11:00:01.176Z,10.66
2019-03-08T11:01:01.748Z,10.72
2019-03-08T11:02:01.373Z,10.84
2019-03-08T11:03:01.346Z,10.73
2019-03-08T11:04:01.402Z,10.75
2019-03-08T11:05:01.460Z,10.86
2019-03-08T11:06:01.514Z,10.87
2019-03-08T11:07:01.571Z,10.95
2019-03-08T11:08:01.627Z,11.03
2019-03-08T11:09:01.994Z,11.12
2019-03-08T11:10:01.745Z,11.13
2019-03-08T11:11:06.332Z,11.01
2019-03-08T11:12:01.853Z,10.94
2019-03-08T11:13:01.911Z,10.86
2019-03-08T11:14:01.972Z,10.81
2019-03-08T11:15:02.314Z,10.75
2019-03-08T11:16:02.080Z,10.73
2019-03-08T11:17:02.140Z,10.73
2019-03-08T11:18:02.198Z,10.66
2019-03-08T11:19:08.504Z,10.72
2019-03-08T11:20:02.309Z,10.75
2019-03-08T11:21:02.365Z,10.84
2019-03-08T11:22:02.422Z,10.78
2019-03-08T11:23:02.480Z,10.86
2019-03-08T11:24:02.595Z,10.73
2019-03-08T11:25:08.029Z,10.75
2019-03-08T11:26:02.650Z,10.76
2019-03-08T11:27:05.220Z,11.24
2019-03-08T11:28:02.763Z,12.46
2019-03-08T11:29:02.819Z,13.54
2019-03-08T11:30:02.877Z,13.81
2019-03-08T11:31:03.092Z,14.69
2019-03-08T11:32:03.007Z,15.12
2019-03-08T11:33:03.046Z,15.19
2019-03-08T11:34:03.104Z,15.33
2019-03-08T11:35:03.162Z,13.69
2019-03-08T11:36:03.221Z,13.73
2019-03-08T11:37:04.220Z,14.24
2019-03-08T11:38:03.342Z,14.54
2019-03-08T11:39:03.394Z,13.51
2019-03-08T11:40:03.450Z,13.14
2019-03-08T11:41:03.512Z,13.44
2019-03-08T11:42:03.569Z,12.30
2019-03-08T11:43:03.634Z,11.85
2019-03-08T11:44:03.684Z,11.57
2019-03-08T11:45:03.745Z,11.46
2019-03-08T11:46:03.804Z,11.53
2019-03-08T11:47:03.861Z,11.48
2019-03-08T11:48:03.917Z,11.41
2019-03-08T11:49:03.980Z,11.27
2019-03-08T11:50:04.035Z,11.26
2019-03-08T11:51:04.093Z,11.31
2019-03-08T11:52:04.154Z,11.28
2019-03-08T11:53:04.208Z,11.31
2019-03-08T11:54:04.267Z,11.13
2019-03-08T11:55:04.328Z,11.11
2019-03-08T11:56:04.381Z,10.99
2019-03-08T11:57:04.443Z,11.06
2019-03-08T11:58:04.497Z,10.98
2019-03-08T11:59:04.554Z,10.93
2019-03-08T12:00:04.614Z,10.93
2019-03-08T12:01:04.669Z,10.93
2019-03-08T12:02:05.694Z,10.87
2019-03-08T12:03:04.785Z,10.93
2019-03-08T12:04:04.840Z,10.93
2019-03-08T12:05:04.897Z,11.02
2019-03-08T12:06:04.955Z,11.02
2019-03-08T12:07:05.015Z,11.30
2019-03-08T12:08:05.068Z,11.30
2019-03-08T12:09:05.126Z,11.48
2019-03-08T12:10:05.184Z,11.70
2019-03-08T12:11:05.240Z,11.77
2019-03-08T12:12:05.297Z,11.79
2019-03-08T12:13:05.352Z,11.48
2019-03-08T12:14:05.409Z,11.66
2019-03-08T12:15:05.467Z,11.67
2019-03-08T12:16:05.522Z,11.74
2019-03-08T12:17:05.580Z,12.11
2019-03-08T12:18:05.637Z,12.21
2019-03-08T12:19:06.449Z,12.51
2019-03-08T12:20:05.755Z,12.59
2019-03-08T12:21:06.294Z,13.28
2019-03-08T12:22:05.867Z,13.76
2019-03-08T12:23:05.923Z,14.46
2019-03-08T12:24:05.981Z,14.80
2019-03-08T12:25:06.037Z,15.25
2019-03-08T12:26:06.096Z,15.80
2019-03-08T12:27:06.155Z,16.41
2019-03-08T12:28:06.211Z,16.03
2019-03-08T12:29:06.274Z,16.65
2019-03-08T12:30:06.334Z,16.29
2019-03-08T12:31:06.389Z,15.35
2019-03-08T12:32:06.566Z,14.83
2019-03-08T12:33:06.505Z,14.53
2019-03-08T12:34:06.564Z,14.48
2019-03-08T12:35:06.622Z,14.54
2019-03-08T12:36:06.700Z,14.95
2019-03-08T12:37:06.741Z,14.54
2019-03-08T12:38:06.801Z,14.39
2019-03-08T12:39:06.856Z,14.04
2019-03-08T12:40:06.914Z,13.35
2019-03-08T12:41:06.974Z,12.46
2019-03-08T12:42:07.033Z,12.31
2019-03-08T12:43:08.259Z,12.46
2019-03-08T12:44:07.150Z,12.49
2019-03-08T12:45:07.687Z,12.30
2019-03-08T12:46:07.289Z,11.85
2019-03-08T12:47:07.326Z,11.87
2019-03-08T12:48:07.382Z,13.04
2019-03-08T12:49:08.265Z,12.58
2019-03-08T12:50:08.113Z,11.77
2019-03-08T12:51:07.559Z,11.69
2019-03-08T12:52:07.616Z,12.08
2019-03-08T12:53:07.676Z,11.93
2019-03-08T12:54:08.450Z,11.78
2019-03-08T12:55:07.790Z,11.75
2019-03-08T12:56:07.847Z,11.81
2019-03-08T12:57:07.905Z,11.88
2019-03-08T12:58:07.964Z,11.94
2019-03-08T12:59:08.023Z,11.93
2019-03-08T13:00:08.078Z,11.88
2019-03-08T13:01:08.136Z,11.82
2019-03-08T13:02:08.193Z,11.81
2019-03-08T13:03:08.252Z,11.74
2019-03-08T13:04:08.309Z,11.67
2019-03-08T13:05:08.365Z,11.60
2019-03-08T13:06:08.424Z,11.62
2019-03-08T13:07:08.480Z,11.62
2019-03-08T13:08:08.542Z,11.66
2019-03-08T13:09:08.594Z,11.62
2019-03-08T13:10:08.652Z,11.45
2019-03-08T13:11:08.709Z,11.49
2019-03-08T13:12:08.764Z,11.54
2019-03-08T13:13:08.822Z,11.46